createdAt,value
2019-01-10T00:00:14.278Z,9.53
2019-01-10T00:02:42.826Z,12.53
2019-01-10T00:05:12.248Z,8.63
2019-01-10T00:07:40.854Z,10.70
2019-01-10T00:10:13.885Z,13.03
2019-01-10T00:12:42.778Z,10.30
2019-01-10T00:15:14.392Z,14.07
2019-01-10T00:17:43.035Z,11.97
2019-01-10T00:20:13.245Z,11.80
2019-01-10T00:22:41.930Z,11.67
2019-01-10T00:25:14.627Z,9.20
2019-01-10T00:27:43.314Z,11.50
2019-01-10T00:30:15.009Z,13.20
2019-01-10T00:32:43.632Z,10.17
2019-01-10T00:35:12.855Z,10.13
2019-01-10T00:37:41.535Z,10.10
2019-01-10T00:40:12.775Z,11.30
2019-01-10T00:42:49.080Z,9.30
2019-01-10T00:45:14.510Z,10.20
2019-01-10T00:47:43.146Z,9.27
2019-01-10T00:50:14.402Z,10.70
2019-01-10T00:52:43.124Z,9.37
2019-01-10T00:55:11.905Z,9.67
2019-01-10T00:57:41.043Z,10.07
2019-01-10T01:00:15.682Z,10.13
2019-01-10T01:02:44.335Z,11.80
2019-01-10T01:05:14.631Z,12.67
2019-01-10T01:07:43.346Z,11.27
2019-01-10T01:10:17.515Z,10.23
2019-01-10T01:12:46.238Z,9.50
2019-01-10T01:15:17.116Z,9.73
2019-01-10T01:17:45.691Z,9.87
2019-01-10T01:20:17.327Z,9.97
2019-01-10T01:22:46.034Z,9.53
2019-01-10T01:25:15.619Z,8.33
2019-01-10T01:27:44.644Z,9.33
2019-01-10T01:30:17.926Z,8.00
2019-01-10T01:32:46.748Z,7.90
2019-01-10T01:35:16.231Z,7.57
2019-01-10T01:37:44.935Z,6.80
2019-01-10T01:40:18.880Z,12.33
2019-01-10T01:42:47.597Z,7.40
2019-01-10T01:45:18.083Z,8.00
2019-01-10T01:47:46.721Z,6.60
2019-01-10T01:50:20.368Z,5.83
2019-01-10T01:52:49.170Z,7.87
2019-01-10T01:55:17.855Z,6.83
2019-01-10T01:57:46.667Z,8.20
2019-01-10T02:00:20.493Z,8.40
2019-01-10T02:02:49.135Z,8.17
2019-01-10T02:05:17.832Z,8.30
2019-01-10T02:07:46.642Z,6.67
2019-01-10T02:10:21.231Z,9.10
2019-01-10T02:12:49.865Z,9.67
2019-01-10T02:15:18.502Z,11.47
2019-01-10T02:17:49.149Z,8.53
2019-01-10T02:20:17.511Z,8.83
2019-01-10T02:22:46.760Z,11.57
2019-01-10T02:25:16.960Z,9.20
2019-01-10T02:27:45.587Z,9.63
2019-01-10T02:30:22.549Z,8.70
2019-01-10T02:32:51.117Z,15.13
2019-01-10T02:35:19.909Z,9.70
2019-01-10T02:37:48.619Z,11.07
2019-01-10T02:40:17.290Z,8.63
2019-01-10T02:42:45.969Z,10.40
2019-01-10T02:45:16.592Z,6.90
2019-01-10T02:47:45.270Z,8.80
2019-01-10T02:50:19.159Z,8.13
2019-01-10T02:52:47.786Z,7.47
2019-01-10T02:55:16.580Z,8.33
2019-01-10T02:57:45.130Z,9.83
2019-01-10T03:00:16.862Z,11.10
2019-01-10T03:02:45.397Z,10.30
2019-01-10T03:05:14.099Z,9.87
2019-01-10T03:07:42.803Z,7.73
2019-01-10T03:10:14.486Z,9.03
2019-01-10T03:12:43.044Z,9.43
2019-01-10T03:15:11.761Z,8.63
2019-01-10T03:17:40.310Z,7.87
2019-01-10T03:20:14.999Z,6.47
2019-01-10T03:22:43.557Z,7.87
2019-01-10T03:25:12.187Z,7.47
2019-01-10T03:27:40.735Z,9.57
2019-01-10T03:30:12.616Z,9.07
2019-01-10T03:32:41.322Z,8.70
2019-01-10T03:35:10.573Z,8.00
2019-01-10T03:37:39.121Z,8.53
2019-01-10T03:40:11.017Z,7.90
2019-01-10T03:42:39.572Z,8.63
2019-01-10T03:45:11.285Z,7.60
2019-01-10T03:47:39.898Z,7.80
2019-01-10T03:50:10.800Z,9.23
2019-01-10T03:52:39.466Z,7.43
2019-01-10T03:55:08.163Z,7.57
2019-01-10T03:57:36.781Z,8.23
2019-01-10T04:00:08.469Z,8.27
2019-01-10T04:02:37.016Z,6.60
2019-01-10T04:05:05.738Z,8.07
2019-01-10T04:07:34.353Z,8.67
2019-01-10T04:10:03.006Z,8.40
2019-01-10T04:12:31.590Z,8.30
2019-01-10T04:15:00.293Z,5.70
2019-01-10T04:17:28.806Z,7.13
2019-01-10T04:19:57.362Z,6.57
2019-01-10T04:22:26.009Z,7.90
2019-01-10T04:24:54.486Z,6.97
2019-01-10T04:27:23.057Z,6.80
2019-01-10T04:29:51.600Z,7.57
2019-01-10T04:32:20.173Z,8.30
2019-01-10T04:34:48.814Z,7.30
2019-01-10T04:37:17.379Z,6.53
2019-01-10T04:39:45.933Z,5.50
2019-01-10T04:42:14.502Z,6.57
2019-01-10T04:44:43.051Z,6.23
2019-01-10T04:47:11.624Z,6.47
2019-01-10T04:49:40.179Z,8.03
2019-01-10T04:52:09.316Z,5.87
2019-01-10T04:54:38.434Z,7.77
2019-01-10T04:57:07.339Z,7.20
2019-01-10T04:59:35.896Z,6.03
2019-01-10T05:02:04.479Z,5.37
2019-01-10T05:04:33.096Z,6.97
2019-01-10T05:07:01.663Z,5.77
2019-01-10T05:09:30.219Z,7.43
2019-01-10T05:11:58.791Z,7.63
2019-01-10T05:14:27.343Z,6.60
2019-01-10T05:16:55.921Z,8.27
2019-01-10T05:19:24.468Z,6.77
2019-01-10T05:21:53.047Z,6.43
2019-01-10T05:24:21.596Z,6.07
2019-01-10T05:26:50.160Z,5.93
2019-01-10T05:29:18.703Z,7.63
2019-01-10T05:31:47.359Z,6.00
2019-01-10T05:34:15.914Z,6.13
2019-01-10T05:36:44.461Z,6.77
2019-01-10T05:39:13.820Z,7.27
2019-01-10T05:41:42.328Z,7.80
2019-01-10T05:44:10.887Z,6.33
2019-01-10T05:46:48.097Z,7.37
2019-01-10T05:49:09.653Z,7.07
2019-01-10T05:51:38.207Z,6.57
2019-01-10T05:54:06.870Z,6.37
2019-01-10T05:56:35.422Z,8.97
2019-01-10T05:59:04.067Z,8.67
2019-01-10T06:01:32.695Z,8.00
2019-01-10T06:04:01.263Z,7.47
2019-01-10T06:06:29.808Z,7.70
2019-01-10T06:08:58.375Z,7.00
2019-01-10T06:11:26.923Z,6.03
2019-01-10T06:13:55.499Z,7.77
2019-01-10T06:16:24.036Z,6.87
2019-01-10T06:18:52.598Z,6.30
2019-01-10T06:21:21.139Z,6.97
2019-01-10T06:23:49.635Z,8.77
2019-01-10T06:26:18.249Z,6.03
2019-01-10T06:28:46.819Z,8.23
2019-01-10T06:31:15.363Z,8.03
2019-01-10T06:33:43.938Z,10.07
2019-01-10T06:36:12.491Z,12.73
2019-01-10T06:38:41.072Z,13.87
2019-01-10T06:41:09.622Z,10.03
2019-01-10T06:43:38.167Z,12.70
2019-01-10T06:46:06.738Z,10.70
2019-01-10T06:48:35.279Z,9.23
2019-01-10T06:51:03.859Z,9.17
2019-01-10T06:53:32.426Z,13.87
2019-01-10T06:56:01.001Z,14.80
2019-01-10T06:58:29.547Z,15.83
2019-01-10T07:00:58.130Z,18.00
2019-01-10T07:03:26.758Z,19.27
2019-01-10T07:05:55.407Z,21.97
2019-01-10T07:08:23.892Z,16.27
2019-01-10T07:10:52.456Z,12.60
2019-01-10T07:13:21.007Z,9.77
2019-01-10T07:15:49.598Z,11.10
2019-01-10T07:18:18.158Z,11.20
2019-01-10T07:20:46.731Z,12.57
2019-01-10T07:23:15.349Z,12.97
2019-01-10T07:25:43.931Z,13.53
2019-01-10T07:28:24.220Z,9.97
2019-01-10T07:30:54.136Z,8.37
2019-01-10T07:33:22.692Z,11.73
2019-01-10T07:35:55.704Z,7.43
2019-01-10T07:38:24.335Z,13.17
2019-01-10T07:40:52.903Z,7.17
2019-01-10T07:43:22.691Z,9.20
2019-01-10T07:45:51.407Z,7.67
2019-01-10T07:48:20.040Z,7.90
2019-01-10T07:50:48.680Z,8.47
2019-01-10T07:53:17.231Z,7.03
2019-01-10T07:55:45.867Z,8.13
2019-01-10T07:58:14.406Z,7.33
2019-01-10T08:00:42.982Z,7.53
2019-01-10T08:03:11.533Z,8.13
2019-01-10T08:05:40.178Z,8.37
2019-01-10T08:08:09.267Z,7.37
2019-01-10T08:10:38.424Z,6.50
2019-01-10T08:13:07.131Z,9.77
2019-01-10T08:15:35.751Z,6.83
2019-01-10T08:18:04.866Z,7.10
2019-01-10T08:20:33.429Z,6.33
2019-01-10T08:23:01.994Z,6.70
2019-01-10T08:25:30.548Z,6.37
2019-01-10T08:27:59.121Z,9.27
2019-01-10T08:30:27.670Z,6.93
2019-01-10T08:32:56.254Z,6.63
2019-01-10T08:35:25.033Z,5.17
2019-01-10T08:37:53.677Z,6.57
2019-01-10T08:40:22.463Z,6.00
2019-01-10T08:42:51.190Z,5.80
2019-01-10T08:45:21.806Z,5.73
2019-01-10T08:47:49.914Z,6.67
2019-01-10T08:50:21.270Z,6.33
2019-01-10T08:52:49.982Z,5.70
2019-01-10T08:55:18.596Z,5.27
2019-01-10T08:57:47.170Z,7.00
2019-01-10T09:00:17.866Z,5.50
2019-01-10T09:02:46.574Z,5.37
2019-01-10T09:05:15.271Z,4.97
2019-01-10T09:07:43.843Z,5.40
2019-01-10T09:10:21.081Z,4.80
2019-01-10T09:12:49.815Z,5.17
2019-01-10T09:15:23.370Z,5.23
2019-01-10T09:17:48.650Z,4.83
2019-01-10T09:20:17.205Z,5.37
2019-01-10T09:22:45.834Z,5.40
2019-01-10T09:25:14.455Z,5.37
2019-01-10T09:27:43.008Z,5.37
2019-01-10T09:30:14.618Z,5.20
2019-01-10T09:32:43.238Z,5.60
2019-01-10T09:35:11.951Z,6.87
2019-01-10T09:37:40.578Z,7.03
2019-01-10T09:40:12.075Z,5.00
2019-01-10T09:42:40.634Z,5.33
2019-01-10T09:45:11.946Z,5.90
2019-01-10T09:47:40.487Z,6.07
2019-01-10T09:50:12.094Z,6.10
2019-01-10T09:52:40.721Z,4.83
2019-01-10T09:55:09.727Z,5.83
2019-01-10T09:57:38.275Z,5.13
2019-01-10T10:00:16.139Z,5.17
2019-01-10T10:02:44.704Z,7.60
2019-01-10T10:05:13.449Z,6.23
2019-01-10T10:07:42.237Z,5.20
2019-01-10T10:10:14.457Z,6.27
2019-01-10T10:12:43.001Z,4.80
2019-01-10T10:15:12.706Z,5.00
2019-01-10T10:17:41.260Z,5.97
2019-01-10T10:20:14.789Z,5.83
2019-01-10T10:22:43.466Z,4.63
2019-01-10T10:25:12.101Z,5.80
2019-01-10T10:27:40.643Z,4.90
2019-01-10T10:30:14.958Z,12.27
2019-01-10T10:32:43.511Z,38.97
2019-01-10T10:35:12.631Z,8.13
2019-01-10T10:37:41.262Z,5.90
2019-01-10T10:40:15.395Z,5.47
2019-01-10T10:42:43.951Z,5.30
2019-01-10T10:45:15.651Z,7.03
2019-01-10T10:47:44.306Z,5.17
2019-01-10T10:50:18.076Z,5.17
2019-01-10T10:52:46.791Z,5.50
2019-01-10T10:55:15.476Z,5.10
2019-01-10T10:57:44.273Z,5.10
2019-01-10T11:00:19.174Z,4.70
2019-01-10T11:02:47.983Z,6.43
2019-01-10T11:05:16.606Z,7.17
2019-01-10T11:07:45.246Z,4.93
2019-01-10T11:10:16.839Z,5.00
2019-01-10T11:12:45.643Z,5.60
2019-01-10T11:15:14.338Z,5.77
2019-01-10T11:17:42.970Z,5.30
2019-01-10T11:20:20.030Z,5.10
2019-01-10T11:22:48.839Z,5.57
2019-01-10T11:25:20.032Z,4.77
2019-01-10T11:27:48.598Z,5.87
2019-01-10T11:30:19.188Z,5.37
2019-01-10T11:32:47.913Z,5.93
2019-01-10T11:35:16.699Z,6.07
2019-01-10T11:37:45.881Z,5.93
2019-01-10T11:40:17.179Z,5.93
2019-01-10T11:42:45.930Z,5.00
2019-01-10T11:45:19.804Z,5.27
2019-01-10T11:47:48.506Z,5.67
2019-01-10T11:50:17.404Z,7.07
2019-01-10T11:52:46.489Z,5.17
2019-01-10T11:55:15.263Z,5.27
2019-01-10T11:57:44.176Z,5.30
2019-01-10T12:00:18.432Z,4.87
2019-01-10T12:02:47.140Z,5.17
2019-01-10T12:05:15.928Z,5.00
2019-01-10T12:07:44.490Z,5.37
2019-01-10T12:10:13.107Z,5.60
2019-01-10T12:12:41.680Z,5.70
2019-01-10T12:15:12.938Z,5.53
2019-01-10T12:17:41.588Z,5.87
2019-01-10T12:20:13.243Z,5.83
2019-01-10T12:22:41.911Z,5.53
2019-01-10T12:25:12.911Z,5.60
2019-01-10T12:27:41.487Z,9.40
2019-01-10T12:30:18.881Z,7.17
2019-01-10T12:32:48.023Z,6.67
2019-01-10T12:35:16.668Z,12.57
2019-01-10T12:37:45.343Z,8.73
2019-01-10T12:40:15.435Z,5.53
2019-01-10T12:42:44.430Z,5.53
2019-01-10T12:45:17.958Z,5.20
2019-01-10T12:47:46.675Z,10.07
2019-01-10T12:50:23.678Z,5.00
2019-01-10T12:52:52.369Z,5.47
2019-01-10T12:55:20.948Z,5.80
2019-01-10T12:57:49.648Z,6.10
2019-01-10T13:00:20.691Z,4.83
2019-01-10T13:02:49.423Z,5.37
2019-01-10T13:05:18.254Z,6.00
2019-01-10T13:07:46.916Z,5.07
2019-01-10T13:10:17.283Z,5.47
2019-01-10T13:12:46.692Z,5.20
2019-01-10T13:15:20.280Z,4.77
2019-01-10T13:17:48.964Z,5.43
2019-01-10T13:20:17.771Z,5.10
2019-01-10T13:22:46.460Z,4.80
2019-01-10T13:25:19.258Z,5.20
2019-01-10T13:27:48.131Z,5.00
2019-01-10T13:30:19.138Z,5.50
2019-01-10T13:32:47.817Z,5.63
2019-01-10T13:35:16.451Z,8.00
2019-01-10T13:37:45.177Z,5.10
2019-01-10T13:40:15.871Z,5.55
2019-01-10T13:42:44.812Z,5.00
2019-01-10T13:45:15.505Z,4.60
2019-01-10T13:47:45.935Z,5.00
2019-01-10T13:50:17.120Z,4.57
2019-01-10T13:52:45.737Z,4.67
2019-01-10T13:55:16.483Z,5.13
2019-01-10T13:57:45.172Z,5.20
2019-01-10T14:00:25.634Z,4.17
2019-01-10T14:02:54.320Z,4.50
2019-01-10T14:05:22.968Z,7.80
2019-01-10T14:07:51.860Z,5.33
2019-01-10T14:10:20.970Z,5.70
2019-01-10T14:12:49.522Z,4.90
2019-01-10T14:15:21.268Z,6.13
2019-01-10T14:17:49.898Z,4.80
2019-01-10T14:20:18.608Z,5.30
2019-01-10T14:22:47.303Z,4.67
2019-01-10T14:25:16.435Z,5.00
2019-01-10T14:27:45.531Z,4.90
2019-01-10T14:30:25.967Z,5.00
2019-01-10T14:32:54.658Z,8.80
2019-01-10T14:35:23.485Z,16.40
2019-01-10T14:37:52.305Z,7.90
2019-01-10T14:40:20.955Z,6.33
2019-01-10T14:42:49.519Z,4.40
2019-01-10T14:45:18.738Z,5.70
2019-01-10T14:47:47.365Z,4.93
2019-01-10T14:50:18.887Z,6.63
2019-01-10T14:52:47.712Z,4.50
2019-01-10T14:55:16.506Z,5.80
2019-01-10T14:57:45.294Z,4.73
2019-01-10T15:00:22.253Z,4.93
2019-01-10T15:02:51.039Z,5.10
2019-01-10T15:05:20.568Z,5.40
2019-01-10T15:07:49.436Z,4.93
2019-01-10T15:10:18.123Z,4.77
2019-01-10T15:12:47.630Z,4.53
2019-01-10T15:15:18.618Z,4.50
2019-01-10T15:17:47.269Z,4.60
2019-01-10T15:20:24.300Z,4.73
2019-01-10T15:22:52.943Z,7.10
2019-01-10T15:25:21.575Z,4.73
2019-01-10T15:27:50.294Z,4.60
2019-01-10T15:30:21.104Z,5.07
2019-01-10T15:32:49.811Z,6.10
2019-01-10T15:35:18.503Z,4.83
2019-01-10T15:37:47.156Z,5.53
2019-01-10T15:40:18.726Z,7.00
2019-01-10T15:42:47.372Z,5.90
2019-01-10T15:45:16.467Z,5.43
2019-01-10T15:47:45.119Z,8.57
2019-01-10T15:50:16.622Z,5.00
2019-01-10T15:52:45.274Z,4.97
2019-01-10T15:55:16.198Z,5.83
2019-01-10T15:57:44.782Z,5.50
2019-01-10T16:00:16.427Z,5.83
2019-01-10T16:02:45.046Z,5.80
2019-01-10T16:05:13.879Z,6.30
2019-01-10T16:08:05.284Z,6.87
2019-01-10T16:10:33.903Z,7.70
2019-01-10T16:13:02.520Z,7.10
2019-01-10T16:15:31.228Z,6.10
2019-01-10T16:17:59.837Z,8.00
2019-01-10T16:20:28.393Z,7.00
2019-01-10T16:22:56.958Z,6.03
2019-01-10T16:25:25.519Z,7.13
2019-01-10T16:27:54.096Z,8.33
2019-01-10T16:30:25.255Z,7.20
2019-01-10T16:32:53.822Z,9.57
2019-01-10T16:35:22.375Z,9.07
2019-01-10T16:37:51.119Z,7.83
2019-01-10T16:40:20.210Z,11.70
2019-01-10T16:42:48.793Z,10.13
2019-01-10T16:45:20.114Z,8.87
2019-01-10T16:47:48.693Z,8.10
2019-01-10T16:50:17.399Z,7.83
2019-01-10T16:52:45.984Z,11.90
2019-01-10T16:55:14.977Z,10.50
2019-01-10T16:57:43.621Z,11.33
2019-01-10T17:00:15.266Z,13.13
2019-01-10T17:02:43.818Z,13.80
2019-01-10T17:05:13.267Z,12.23
2019-01-10T17:07:41.797Z,12.60
2019-01-10T17:10:11.830Z,14.90
2019-01-10T17:12:40.454Z,15.00
2019-01-10T17:15:11.488Z,15.10
2019-01-10T17:17:40.063Z,14.23
2019-01-10T17:20:11.697Z,13.10
2019-01-10T17:22:40.244Z,10.30
2019-01-10T17:25:09.659Z,12.17
2019-01-10T17:27:38.210Z,10.43
2019-01-10T17:30:12.571Z,10.20
2019-01-10T17:32:41.123Z,7.20
2019-01-10T17:35:12.973Z,10.40
2019-01-10T17:37:41.555Z,9.67
2019-01-10T17:40:13.531Z,10.10
2019-01-10T17:42:42.253Z,8.50
2019-01-10T17:45:15.132Z,8.27
2019-01-10T17:47:44.166Z,8.80
2019-01-10T17:50:16.443Z,9.07
2019-01-10T17:52:45.151Z,8.43
2019-01-10T17:55:13.986Z,14.33
2019-01-10T17:57:42.554Z,6.87
2019-01-10T18:00:14.288Z,9.43
2019-01-10T18:02:42.844Z,9.93
2019-01-10T18:05:11.580Z,10.47
2019-01-10T18:07:40.151Z,10.90
2019-01-10T18:10:11.811Z,13.33
2019-01-10T18:12:40.361Z,12.90
2019-01-10T18:15:11.687Z,11.70
2019-01-10T18:17:40.319Z,12.40
2019-01-10T18:20:15.079Z,27.47
2019-01-10T18:22:43.791Z,12.43
2019-01-10T18:25:14.299Z,11.50
2019-01-10T18:27:45.328Z,10.60
2019-01-10T18:30:17.163Z,15.10
2019-01-10T18:32:45.851Z,15.57
2019-01-10T18:35:14.955Z,15.00
2019-01-10T18:37:44.484Z,11.83
2019-01-10T18:40:17.543Z,12.20
2019-01-10T18:42:46.167Z,10.53
2019-01-10T18:45:23.432Z,9.83
2019-01-10T18:47:56.922Z,8.00
2019-01-10T18:50:23.855Z,17.50
2019-01-10T18:52:52.661Z,9.67
2019-01-10T18:55:21.378Z,11.13
2019-01-10T18:57:50.024Z,11.90
2019-01-10T19:00:29.135Z,11.07
2019-01-10T19:02:59.607Z,11.20
2019-01-10T19:05:28.331Z,9.17
2019-01-10T19:07:57.032Z,13.57
2019-01-10T19:10:25.861Z,11.13
2019-01-10T19:12:54.488Z,11.83
2019-01-10T19:15:23.231Z,13.83
2019-01-10T19:17:51.779Z,11.53
2019-01-10T19:20:27.604Z,10.73
2019-01-10T19:22:57.107Z,14.77
2019-01-10T19:25:25.831Z,12.63
2019-01-10T19:27:54.503Z,15.07
2019-01-10T19:30:25.320Z,11.07
2019-01-10T19:32:54.058Z,12.33
2019-01-10T19:35:22.838Z,9.90
2019-01-10T19:37:51.773Z,9.97
2019-01-10T19:40:22.079Z,11.60
2019-01-10T19:42:50.666Z,10.97
2019-01-10T19:45:21.336Z,13.70
2019-01-10T19:47:50.573Z,12.23
2019-01-10T19:50:23.279Z,11.80
2019-01-10T19:52:52.043Z,16.50
2019-01-10T19:55:22.352Z,15.17
2019-01-10T19:57:51.175Z,8.13
2019-01-10T20:00:28.243Z,9.33
2019-01-10T20:02:57.026Z,11.77
2019-01-10T20:05:25.931Z,13.17
2019-01-10T20:07:54.578Z,11.77
2019-01-10T20:10:23.231Z,14.57
2019-01-10T20:12:51.798Z,14.57
2019-01-10T20:15:21.332Z,16.37
2019-01-10T20:17:50.115Z,13.77
2019-01-10T20:20:30.270Z,12.63
2019-01-10T20:22:58.972Z,13.10
2019-01-10T20:25:27.607Z,12.37
2019-01-10T20:27:56.250Z,12.57
2019-01-10T20:30:24.980Z,11.57
2019-01-10T20:32:53.546Z,14.47
2019-01-10T20:35:22.174Z,16.20
2019-01-10T20:37:50.836Z,19.90
2019-01-10T20:40:19.978Z,16.37
2019-01-10T20:42:48.582Z,13.97
2019-01-10T20:45:17.298Z,11.87
2019-01-10T20:47:45.894Z,15.73
2019-01-10T20:50:16.435Z,12.63
2019-01-10T20:52:44.962Z,13.60
2019-01-10T20:55:15.161Z,9.90
2019-01-10T20:57:43.816Z,11.27
2019-01-10T21:00:21.190Z,11.47
2019-01-10T21:02:50.515Z,10.43
2019-01-10T21:05:19.153Z,16.67
2019-01-10T21:07:49.762Z,15.73
2019-01-10T21:10:39.193Z,17.63
2019-01-10T21:13:07.781Z,12.47
2019-01-10T21:15:36.530Z,19.20
2019-01-10T21:18:05.185Z,13.23
2019-01-10T21:20:33.879Z,11.77
2019-01-10T21:23:02.603Z,11.30
2019-01-10T21:25:31.263Z,13.30
2019-01-10T21:28:01.124Z,16.30
2019-01-10T21:30:29.891Z,12.47
2019-01-10T21:32:58.510Z,15.67
2019-01-10T21:35:27.332Z,10.30
2019-01-10T21:38:15.431Z,14.93
2019-01-10T21:40:44.191Z,16.70
2019-01-10T21:43:13.064Z,15.87
2019-01-10T21:45:41.707Z,15.43
2019-01-10T21:48:10.476Z,18.17
2019-01-10T21:50:39.141Z,14.93
2019-01-10T21:53:08.030Z,14.83
2019-01-10T21:55:36.913Z,14.00
2019-01-10T21:58:05.827Z,12.87
2019-01-10T22:00:34.709Z,16.73
2019-01-10T22:03:04.312Z,15.13
2019-01-10T22:05:33.443Z,11.37
2019-01-10T22:08:03.860Z,15.53
2019-01-10T22:10:32.530Z,12.47
2019-01-10T22:13:01.532Z,12.03
2019-01-10T22:15:30.197Z,14.17
2019-01-10T22:17:58.901Z,12.43
2019-01-10T22:20:27.631Z,13.70
2019-01-10T22:22:56.328Z,15.63
2019-01-10T22:25:25.363Z,12.73
2019-01-10T22:27:55.240Z,16.87
2019-01-10T22:30:24.089Z,12.53
2019-01-10T22:32:53.140Z,13.07
2019-01-10T22:35:22.556Z,12.43
2019-01-10T22:38:03.514Z,15.67
2019-01-10T22:40:32.593Z,15.10
2019-01-10T22:43:01.283Z,11.37
2019-01-10T22:45:29.942Z,12.30
2019-01-10T22:47:58.687Z,13.73
2019-01-10T22:50:27.496Z,13.33
2019-01-10T22:52:56.106Z,13.90
2019-01-10T22:55:24.693Z,13.63
2019-01-10T22:57:53.384Z,13.40
2019-01-10T23:00:52.063Z,15.10
2019-01-10T23:03:21.021Z,13.83
2019-01-10T23:05:49.993Z,14.90
2019-01-10T23:08:18.775Z,12.17
2019-01-10T23:10:47.632Z,11.93
2019-01-10T23:13:16.399Z,13.03
2019-01-10T23:15:45.380Z,14.07
2019-01-10T23:18:14.163Z,14.07
2019-01-10T23:20:42.853Z,11.37
2019-01-10T23:23:15.042Z,18.37
2019-01-10T23:25:45.693Z,9.93
2019-01-10T23:28:14.658Z,20.13
2019-01-10T23:30:52.827Z,13.80
2019-01-10T23:33:22.221Z,12.07
2019-01-10T23:35:55.628Z,11.47
2019-01-10T23:38:24.347Z,15.13
2019-01-10T23:40:53.050Z,13.43
2019-01-10T23:43:21.698Z,13.03
2019-01-10T23:45:50.250Z,11.27
2019-01-10T23:48:18.836Z,18.77
2019-01-10T23:50:47.462Z,14.17
2019-01-10T23:53:16.188Z,13.63
2019-01-10T23:55:44.878Z,19.27
2019-01-10T23:58:13.467Z,16.00
